createdAt,value
2023-02-08T00:01:21.922Z,-1.7
2023-02-08T00:06:24.045Z,-1.6
2023-02-08T00:11:21.187Z,-1.8
2023-02-08T00:16:20.812Z,-1.8
2023-02-08T00:21:20.382Z,-1.8
2023-02-08T00:26:20.031Z,-1.8
2023-02-08T00:31:19.912Z,-1.8
2023-02-08T00:36:19.485Z,-1.8
2023-02-08T00:41:18.912Z,-1.8
2023-02-08T00:46:18.626Z,-1.9
2023-02-08T00:51:20.660Z,-1.9
2023-02-08T00:56:17.750Z,-2.1
2023-02-08T01:01:17.768Z,-2.1
2023-02-08T01:06:20.956Z,-2.2
2023-02-08T01:11:16.554Z,-2.2
2023-02-08T01:16:16.206Z,-2.2
2023-02-08T01:21:15.989Z,-2.2
2023-02-08T01:26:15.374Z,-2.2
2023-02-08T01:31:15.038Z,-2.4
2023-02-08T01:36:14.673Z,-2.4
2023-02-08T01:41:14.244Z,-2.4
2023-02-08T01:46:16.451Z,-2.6
2023-02-08T01:51:13.540Z,-2.5
2023-02-08T01:56:13.198Z,-2.6
2023-02-08T02:01:12.837Z,-2.6
2023-02-08T02:06:12.483Z,-2.6
2023-02-08T02:11:12.064Z,-2.8
2023-02-08T02:16:11.768Z,-2.8
2023-02-08T02:21:11.272Z,-2.9
2023-02-08T02:26:10.965Z,-2.8
2023-02-08T02:31:10.537Z,-2.8
2023-02-08T02:36:10.161Z,-2.9
2023-02-08T02:41:09.802Z,-2.9
2023-02-08T02:46:09.581Z,-2.9
2023-02-08T02:51:09.000Z,-3.0
2023-02-08T02:56:08.636Z,-2.9
2023-02-08T03:01:08.296Z,-2.8
2023-02-08T03:06:07.844Z,-2.9
2023-02-08T03:11:07.442Z,-2.9
2023-02-08T03:16:07.075Z,-2.8
2023-02-08T03:21:06.695Z,-2.8
2023-02-08T03:26:06.307Z,-2.8
2023-02-08T03:31:05.997Z,-2.7
2023-02-08T03:36:05.572Z,-2.6
2023-02-08T03:41:05.148Z,-2.5
2023-02-08T03:46:04.784Z,-2.5
2023-02-08T03:56:03.943Z,-2.6
2023-02-08T04:01:03.566Z,-2.7
2023-02-08T04:06:03.200Z,-2.8
2023-02-08T04:11:02.794Z,-2.8
2023-02-08T04:16:02.698Z,-2.8
2023-02-08T04:21:02.010Z,-2.8
2023-02-08T04:26:01.684Z,-2.8
2023-02-08T04:31:01.347Z,-2.8
2023-02-08T04:36:02.919Z,-2.9
2023-02-08T04:41:00.510Z,-2.9
2023-02-08T04:46:00.137Z,-2.9
2023-02-08T04:50:59.741Z,-2.9
2023-02-08T04:55:59.378Z,-3.0
2023-02-08T05:00:58.992Z,-2.9
2023-02-08T05:05:58.646Z,-3.0
2023-02-08T05:10:58.123Z,-3.1
2023-02-08T05:15:57.829Z,-3.1
2023-02-08T05:21:01.559Z,-3.1
2023-02-08T05:30:56.562Z,-3.2
2023-02-08T05:35:56.115Z,-3.3
2023-02-08T05:40:55.703Z,-3.3
2023-02-08T05:45:55.279Z,-3.4
2023-02-08T05:50:54.876Z,-3.4
2023-02-08T05:55:54.502Z,-3.5
2023-02-08T06:00:54.125Z,-3.6
2023-02-08T06:05:53.719Z,-3.5
2023-02-08T06:10:55.280Z,-3.6
2023-02-08T06:15:52.936Z,-3.6
2023-02-08T06:20:52.461Z,-3.7
2023-02-08T06:25:52.062Z,-3.7
2023-02-08T06:30:51.641Z,-3.7
2023-02-08T06:35:51.219Z,-3.8
2023-02-08T06:40:50.823Z,-3.6
2023-02-08T06:45:50.484Z,-3.7
2023-02-08T06:50:49.976Z,-3.6
2023-02-08T06:55:49.547Z,-3.6
2023-02-08T07:00:49.200Z,-3.7
2023-02-08T07:06:03.705Z,-3.8
2023-02-08T07:10:48.268Z,-3.7
2023-02-08T07:15:49.869Z,-3.8
2023-02-08T07:20:49.419Z,-3.8
2023-02-08T07:25:46.970Z,-3.8
2023-02-08T07:30:46.595Z,-3.9
2023-02-08T07:35:50.602Z,-3.8
2023-02-08T07:40:45.696Z,-3.8
2023-02-08T07:45:45.284Z,-3.8
2023-02-08T07:50:44.878Z,-3.7
2023-02-08T07:55:44.419Z,-3.7
2023-02-08T08:00:44.045Z,-3.6
2023-02-08T08:05:43.615Z,-3.6
2023-02-08T08:10:43.196Z,-3.5
2023-02-08T08:15:42.792Z,-3.4
2023-02-08T08:20:42.588Z,-3.2
2023-02-08T08:25:41.915Z,-3.1
2023-02-08T08:30:43.814Z,-3.0
2023-02-08T08:35:41.092Z,-2.9
2023-02-08T08:40:41.450Z,-2.8
2023-02-08T08:45:40.284Z,-2.6
2023-02-08T08:50:40.311Z,-2.5
2023-02-08T08:55:39.509Z,-2.3
2023-02-08T09:00:39.465Z,-2.2
2023-02-08T09:05:38.719Z,-2.0
2023-02-08T09:10:38.333Z,-1.9
2023-02-08T09:15:37.924Z,-1.7
2023-02-08T09:20:37.567Z,-1.5
2023-02-08T09:25:37.207Z,-1.4
2023-02-08T09:30:36.855Z,-1.2
2023-02-08T09:35:36.449Z,-1.1
2023-02-08T09:40:36.124Z,-0.9
2023-02-08T09:45:35.758Z,-0.8
2023-02-08T09:50:35.425Z,-0.7
2023-02-08T09:55:37.151Z,-0.4
2023-02-08T10:00:34.864Z,-0.3
2023-02-08T10:05:34.456Z,-0.1
2023-02-08T10:10:34.147Z,0.1
2023-02-08T10:15:33.795Z,0.2
2023-02-08T10:20:33.489Z,0.5
2023-02-08T10:25:33.123Z,0.8
2023-02-08T10:30:32.983Z,1.0
2023-02-08T10:35:32.535Z,1.3
2023-02-08T10:40:32.256Z,1.6
2023-02-08T10:45:32.066Z,1.8
2023-02-08T10:50:31.682Z,1.9
2023-02-08T10:55:31.404Z,2.2
2023-02-08T11:00:31.273Z,2.5
2023-02-08T11:05:30.888Z,2.8
2023-02-08T11:11:41.666Z,3.2
2023-02-08T11:15:30.473Z,3.5
2023-02-08T11:20:30.066Z,3.8
2023-02-08T11:25:30.296Z,3.9
2023-02-08T11:30:29.737Z,3.9
2023-02-08T11:35:29.706Z,4.2
2023-02-08T11:40:29.288Z,4.3
2023-02-08T11:45:29.260Z,4.4
2023-02-08T11:50:29.881Z,4.7
2023-02-08T11:55:28.955Z,4.7
2023-02-08T12:00:28.525Z,4.8
2023-02-08T12:05:28.536Z,5.1
2023-02-08T12:10:28.222Z,5.2
2023-02-08T12:15:28.262Z,5.2
2023-02-08T12:20:27.913Z,5.4
2023-02-08T12:25:27.964Z,5.6
2023-02-08T12:30:27.612Z,5.8
2023-02-08T12:35:40.177Z,6.0
2023-02-08T12:40:27.511Z,6.1
2023-02-08T12:45:27.371Z,6.3
2023-02-08T12:50:27.965Z,6.3
2023-02-08T12:55:27.151Z,6.4
2023-02-08T13:00:26.871Z,6.4
2023-02-08T13:05:26.863Z,6.6
2023-02-08T13:10:27.974Z,6.7
2023-02-08T13:15:31.071Z,7.0
2023-02-08T13:20:26.469Z,7.1
2023-02-08T13:25:30.280Z,7.3
2023-02-08T13:30:26.196Z,7.2
2023-02-08T13:35:28.073Z,7.1
2023-02-08T13:40:25.951Z,7.3
2023-02-08T13:45:25.871Z,7.4
2023-02-08T13:50:28.233Z,7.5
2023-02-08T13:55:25.720Z,7.4
2023-02-08T14:00:25.658Z,7.5
2023-02-08T14:05:25.581Z,7.5
2023-02-08T14:10:25.439Z,7.6
2023-02-08T14:15:25.443Z,7.7
2023-02-08T14:20:25.228Z,7.8
2023-02-08T14:25:27.134Z,7.8
2023-02-08T14:30:25.008Z,7.7
2023-02-08T14:40:25.214Z,7.8
2023-02-08T14:45:24.686Z,7.9
2023-02-08T14:50:24.618Z,7.9
2023-02-08T14:55:24.486Z,7.9
2023-02-08T15:00:24.395Z,7.8
2023-02-08T15:05:24.307Z,7.8
2023-02-08T15:10:24.206Z,7.9
2023-02-08T15:15:24.112Z,7.9
2023-02-08T15:20:24.028Z,7.9
2023-02-08T15:30:23.894Z,7.6
2023-02-08T15:35:23.804Z,7.6
2023-02-08T15:40:23.746Z,7.6
2023-02-08T15:45:24.541Z,7.6
2023-02-08T15:50:23.583Z,7.5
2023-02-08T15:55:23.478Z,7.4
2023-02-08T16:00:23.380Z,7.3
2023-02-08T16:05:23.243Z,7.3
2023-02-08T16:10:23.201Z,7.2
2023-02-08T16:15:23.103Z,7.1
2023-02-08T16:20:22.970Z,7.0
2023-02-08T16:25:22.811Z,6.8
2023-02-08T16:30:22.865Z,6.7
2023-02-08T16:35:22.583Z,6.5
2023-02-08T16:40:22.495Z,6.2
2023-02-08T16:45:22.289Z,6.1
2023-02-08T16:50:22.172Z,6.0
2023-02-08T16:55:21.990Z,5.7
2023-02-08T17:00:25.809Z,5.5
2023-02-08T17:05:21.625Z,5.2
2023-02-08T17:10:21.533Z,5.1
2023-02-08T17:15:21.326Z,4.9
2023-02-08T17:20:21.150Z,4.7
2023-02-08T17:25:21.071Z,4.5
2023-02-08T17:30:23.394Z,4.2
2023-02-08T17:35:20.705Z,4.1
2023-02-08T17:40:20.402Z,3.9
2023-02-08T17:45:20.132Z,3.8
2023-02-08T17:50:20.039Z,3.6
2023-02-08T17:55:19.671Z,3.4
2023-02-08T18:00:19.514Z,3.3
2023-02-08T18:05:19.187Z,3.2
2023-02-08T18:10:18.983Z,3.1
2023-02-08T18:15:18.710Z,3.0
2023-02-08T18:20:18.442Z,2.9
2023-02-08T18:25:18.144Z,2.8
2023-02-08T18:30:17.895Z,2.7
2023-02-08T18:35:17.614Z,2.6
2023-02-08T18:40:17.342Z,2.4
2023-02-08T18:45:17.004Z,2.2
2023-02-08T18:50:16.812Z,2.1
2023-02-08T18:55:16.419Z,2.0
2023-02-08T19:00:16.287Z,2.0
2023-02-08T19:05:15.974Z,1.9
2023-02-08T19:15:17.391Z,1.6
2023-02-08T19:20:15.174Z,1.5
2023-02-08T19:25:14.819Z,1.4
2023-02-08T19:35:14.260Z,1.2
2023-02-08T19:40:14.044Z,1.1
2023-02-08T19:45:13.692Z,1.0
2023-02-08T19:50:13.436Z,0.9
2023-02-08T19:55:13.087Z,0.9
2023-02-08T20:00:23.123Z,0.8
2023-02-08T20:05:12.494Z,0.8
2023-02-08T20:10:12.219Z,0.7
2023-02-08T20:15:11.935Z,0.6
2023-02-08T20:20:11.601Z,0.6
2023-02-08T20:25:11.270Z,0.6
2023-02-08T20:30:10.927Z,0.5
2023-02-08T20:35:10.645Z,0.4
2023-02-08T20:40:10.284Z,0.2
2023-02-08T20:45:09.952Z,0.2
2023-02-08T20:50:18.274Z,0.2
2023-02-08T20:55:09.214Z,0.1
2023-02-08T21:00:08.997Z,0.1
2023-02-08T21:05:10.632Z,-0.1
2023-02-08T21:10:08.304Z,-0.2
2023-02-08T21:15:08.037Z,-0.3
2023-02-08T21:20:07.847Z,-0.4
2023-02-08T21:25:07.388Z,-0.4
2023-02-08T21:30:09.180Z,-0.4
2023-02-08T21:35:06.705Z,-0.5
2023-02-08T21:40:06.369Z,-0.4
2023-02-08T21:45:06.028Z,-0.4
2023-02-08T21:50:05.654Z,-0.4
2023-02-08T21:55:05.385Z,-0.4
2023-02-08T22:00:05.002Z,-0.5
2023-02-08T22:05:04.614Z,-0.6
2023-02-08T22:10:04.296Z,-0.6
2023-02-08T22:15:03.950Z,-0.5
2023-02-08T22:20:03.687Z,-0.6
2023-02-08T22:25:03.305Z,-0.6
2023-02-08T22:30:03.006Z,-0.7
2023-02-08T22:35:02.695Z,-0.6
2023-02-08T22:45:01.996Z,-0.6
2023-02-08T22:50:01.644Z,-0.6
2023-02-08T22:55:01.264Z,-0.6
2023-02-08T23:00:00.936Z,-0.7
2023-02-08T23:05:00.594Z,-0.8
2023-02-08T23:10:00.244Z,-0.9
2023-02-08T23:14:59.871Z,-0.9
2023-02-08T23:19:59.556Z,-1.1
2023-02-08T23:24:59.206Z,-1.1
2023-02-08T23:29:58.893Z,-1.1
2023-02-08T23:34:58.541Z,-1.0
2023-02-08T23:40:00.248Z,-1.0
2023-02-08T23:44:57.856Z,-1.0
2023-02-08T23:49:57.536Z,-1.0
2023-02-08T23:54:57.234Z,-1.1
2023-02-08T23:59:56.919Z,-1.1
